createdAt,value
2019-03-19T00:01:01.592Z,2.13
2019-03-19T00:03:30.962Z,2.23
2019-03-19T00:06:01.186Z,2.50
2019-03-19T00:08:32.365Z,2.13
2019-03-19T00:11:06.805Z,2.87
2019-03-19T00:13:43.247Z,3.27
2019-03-19T00:16:09.570Z,2.63
2019-03-19T00:18:38.771Z,2.60
2019-03-19T00:21:08.169Z,2.47
2019-03-19T00:23:37.405Z,2.37
2019-03-19T00:26:06.755Z,3.07
2019-03-19T00:28:36.113Z,2.53
2019-03-19T00:31:05.332Z,3.00
2019-03-19T00:33:34.741Z,3.17
2019-03-19T00:36:03.951Z,2.97
2019-03-19T00:38:33.195Z,3.23
2019-03-19T00:41:02.677Z,3.10
2019-03-19T00:43:31.902Z,2.40
2019-03-19T00:46:01.195Z,3.63
2019-03-19T00:48:30.397Z,3.80
2019-03-19T00:50:59.592Z,2.87
2019-03-19T00:53:28.865Z,3.10
2019-03-19T00:55:58.119Z,3.13
2019-03-19T00:58:27.342Z,2.73
2019-03-19T01:00:56.563Z,3.17
2019-03-19T01:03:25.759Z,2.70
2019-03-19T01:05:54.957Z,3.30
2019-03-19T01:08:24.155Z,3.03
2019-03-19T01:10:53.371Z,2.60
2019-03-19T01:13:22.556Z,2.60
2019-03-19T01:15:51.774Z,2.70
2019-03-19T01:18:21.048Z,2.83
2019-03-19T01:20:50.246Z,2.20
2019-03-19T01:23:19.461Z,3.10
2019-03-19T01:25:55.657Z,2.83
2019-03-19T01:28:17.895Z,2.97
2019-03-19T01:30:47.133Z,2.43
2019-03-19T01:33:16.653Z,3.30
2019-03-19T01:35:45.879Z,3.30
2019-03-19T01:38:15.238Z,2.63
2019-03-19T01:40:44.465Z,2.70
2019-03-19T01:43:13.705Z,3.53
2019-03-19T01:45:42.931Z,2.30
2019-03-19T01:48:12.137Z,2.10
2019-03-19T01:50:41.379Z,3.60
2019-03-19T01:53:10.592Z,3.03
2019-03-19T01:55:39.848Z,2.80
2019-03-19T01:58:09.075Z,3.07
2019-03-19T02:00:38.336Z,2.77
2019-03-19T02:03:07.573Z,2.33
2019-03-19T02:05:36.791Z,3.07
2019-03-19T02:08:06.027Z,2.70
2019-03-19T02:10:35.263Z,3.03
2019-03-19T02:13:04.499Z,2.27
2019-03-19T02:15:33.738Z,3.07
2019-03-19T02:18:03.003Z,4.20
2019-03-19T02:20:32.216Z,3.60
2019-03-19T02:23:01.507Z,3.20
2019-03-19T02:25:30.732Z,3.67
2019-03-19T02:27:59.907Z,3.17
2019-03-19T02:30:29.138Z,3.20
2019-03-19T02:32:58.363Z,2.63
2019-03-19T02:35:27.773Z,3.37
2019-03-19T02:37:57.132Z,3.70
2019-03-19T02:40:26.323Z,3.27
2019-03-19T02:42:55.663Z,4.00
2019-03-19T02:45:24.941Z,3.03
2019-03-19T02:47:54.199Z,3.67
2019-03-19T02:50:23.471Z,3.50
2019-03-19T02:52:52.736Z,3.33
2019-03-19T02:55:21.971Z,3.90
2019-03-19T02:57:51.236Z,3.33
2019-03-19T03:00:20.460Z,3.57
2019-03-19T03:02:49.681Z,3.23
2019-03-19T03:05:18.903Z,3.40
2019-03-19T03:07:48.134Z,3.80
2019-03-19T03:10:17.401Z,3.63
2019-03-19T03:12:46.578Z,4.00
2019-03-19T03:15:15.815Z,3.60
2019-03-19T03:17:45.023Z,2.77
2019-03-19T03:20:14.244Z,4.03
2019-03-19T03:22:43.474Z,4.10
2019-03-19T03:25:12.704Z,3.50
2019-03-19T03:27:42.001Z,3.67
2019-03-19T03:30:11.926Z,3.20
2019-03-19T03:32:41.181Z,4.40
2019-03-19T03:35:10.516Z,3.27
2019-03-19T03:37:39.786Z,2.70
2019-03-19T03:40:10.276Z,3.57
2019-03-19T03:42:42.779Z,3.40
2019-03-19T03:45:09.084Z,3.87
2019-03-19T03:47:38.401Z,3.43
2019-03-19T03:50:08.404Z,3.40
2019-03-19T03:52:37.677Z,3.37
2019-03-19T03:55:07.712Z,3.27
2019-03-19T03:57:36.930Z,4.13
2019-03-19T04:00:08.687Z,3.13
2019-03-19T04:02:37.977Z,3.40
2019-03-19T04:05:07.281Z,3.83
2019-03-19T04:07:36.612Z,3.73
2019-03-19T04:10:06.154Z,3.63
2019-03-19T04:12:35.378Z,3.00
2019-03-19T04:15:05.214Z,4.30
2019-03-19T04:17:34.381Z,3.87
2019-03-19T04:20:03.639Z,3.70
2019-03-19T04:22:32.874Z,2.97
2019-03-19T04:25:02.104Z,3.57
2019-03-19T04:27:31.309Z,3.83
2019-03-19T04:30:00.549Z,3.30
2019-03-19T04:32:29.715Z,3.97
2019-03-19T04:34:58.992Z,3.43
2019-03-19T04:37:28.287Z,3.73
2019-03-19T04:39:57.499Z,4.00
2019-03-19T04:42:26.789Z,3.90
2019-03-19T04:44:56.001Z,3.27
2019-03-19T04:47:25.233Z,3.37
2019-03-19T04:49:54.593Z,3.80
2019-03-19T04:52:23.883Z,3.37
2019-03-19T04:54:53.099Z,2.93
2019-03-19T04:57:26.822Z,4.03
2019-03-19T04:59:51.509Z,3.43
2019-03-19T05:02:20.733Z,2.73
2019-03-19T05:04:49.992Z,2.67
2019-03-19T05:07:19.269Z,3.50
2019-03-19T05:09:48.531Z,3.87
2019-03-19T05:12:17.832Z,4.53
2019-03-19T05:14:47.033Z,3.30
2019-03-19T05:17:16.299Z,3.37
2019-03-19T05:19:45.488Z,3.53
2019-03-19T05:22:14.712Z,3.60
2019-03-19T05:24:43.928Z,4.20
2019-03-19T05:27:14.067Z,3.97
2019-03-19T05:29:42.395Z,2.90
2019-03-19T05:32:11.611Z,4.20
2019-03-19T05:34:40.837Z,4.20
2019-03-19T05:37:10.096Z,2.67
2019-03-19T05:39:39.407Z,3.50
2019-03-19T05:42:08.719Z,3.03
2019-03-19T05:44:38.003Z,4.77
2019-03-19T05:47:07.315Z,3.63
2019-03-19T05:49:36.561Z,3.77
2019-03-19T05:52:05.913Z,3.37
2019-03-19T05:54:35.189Z,4.03
2019-03-19T05:57:04.390Z,3.03
2019-03-19T05:59:33.590Z,3.47
2019-03-19T06:02:02.911Z,3.43
2019-03-19T06:04:32.195Z,3.03
2019-03-19T06:07:03.242Z,2.90
2019-03-19T06:09:32.424Z,3.37
2019-03-19T06:12:01.631Z,3.67
2019-03-19T06:14:31.119Z,3.40
2019-03-19T06:17:00.396Z,3.53
2019-03-19T06:19:29.649Z,4.67
2019-03-19T06:21:58.832Z,3.63
2019-03-19T06:24:28.071Z,3.37
2019-03-19T06:26:57.314Z,4.20
2019-03-19T06:29:26.552Z,3.40
2019-03-19T06:31:55.748Z,3.43
2019-03-19T06:34:25.024Z,3.23
2019-03-19T06:36:54.472Z,3.73
2019-03-19T06:39:23.767Z,3.67
2019-03-19T06:41:53.055Z,3.73
2019-03-19T06:44:22.277Z,3.80
2019-03-19T06:46:51.514Z,3.20
2019-03-19T06:49:20.710Z,4.03
2019-03-19T06:51:49.919Z,3.43
2019-03-19T06:54:19.144Z,3.03
2019-03-19T06:56:48.343Z,4.37
2019-03-19T06:59:17.655Z,4.03
2019-03-19T07:01:46.939Z,3.50
2019-03-19T07:04:16.235Z,3.13
2019-03-19T07:06:45.485Z,3.13
2019-03-19T07:09:14.705Z,4.10
2019-03-19T07:11:43.903Z,3.40
2019-03-19T07:14:13.120Z,3.77
2019-03-19T07:16:42.335Z,3.97
2019-03-19T07:19:11.609Z,3.30
2019-03-19T07:21:40.789Z,3.43
2019-03-19T07:24:10.067Z,3.27
2019-03-19T07:26:39.277Z,3.60
2019-03-19T07:29:08.557Z,3.10
2019-03-19T07:31:37.777Z,3.40
2019-03-19T07:34:07.103Z,3.23
2019-03-19T07:36:36.311Z,3.23
2019-03-19T07:39:08.331Z,3.33
2019-03-19T07:41:37.579Z,4.37
2019-03-19T07:44:06.852Z,3.80
2019-03-19T07:46:36.158Z,2.97
2019-03-19T07:49:05.415Z,2.83
2019-03-19T07:51:34.640Z,3.40
2019-03-19T07:54:03.956Z,2.37
2019-03-19T07:56:33.310Z,2.10
2019-03-19T07:59:02.576Z,2.77
2019-03-19T08:01:31.923Z,2.37
2019-03-19T08:04:01.353Z,3.20
2019-03-19T08:06:32.674Z,3.13
2019-03-19T08:09:00.087Z,3.13
2019-03-19T08:11:29.443Z,4.13
2019-03-19T08:13:58.689Z,2.83
2019-03-19T08:16:27.934Z,2.17
2019-03-19T08:18:57.228Z,3.43
2019-03-19T08:21:26.406Z,3.10
2019-03-19T08:23:55.660Z,3.23
2019-03-19T08:26:24.988Z,3.17
2019-03-19T08:28:55.516Z,3.30
2019-03-19T08:31:23.462Z,3.70
2019-03-19T08:33:52.762Z,3.20
2019-03-19T08:36:22.026Z,2.80
2019-03-19T08:38:51.240Z,3.23
2019-03-19T08:41:20.644Z,3.37
2019-03-19T08:43:49.911Z,3.97
2019-03-19T08:46:19.171Z,3.20
2019-03-19T08:48:48.382Z,3.10
2019-03-19T08:51:17.627Z,2.67
2019-03-19T08:53:46.942Z,2.97
2019-03-19T08:56:16.147Z,3.37
2019-03-19T08:58:45.436Z,3.33
2019-03-19T09:01:14.628Z,2.57
2019-03-19T09:03:43.886Z,3.17
2019-03-19T09:06:13.137Z,3.00
2019-03-19T09:08:42.413Z,2.90
2019-03-19T09:11:11.731Z,2.77
2019-03-19T09:13:41.013Z,2.93
2019-03-19T09:16:10.299Z,2.87
2019-03-19T09:18:39.519Z,3.57
2019-03-19T09:21:08.826Z,2.13
2019-03-19T09:23:38.112Z,3.13
2019-03-19T09:26:07.497Z,3.33
2019-03-19T09:28:36.724Z,2.60
2019-03-19T09:31:05.918Z,2.53
2019-03-19T09:33:35.127Z,3.70
2019-03-19T09:36:04.422Z,2.57
2019-03-19T09:38:33.737Z,2.33
2019-03-19T09:41:03.046Z,2.93
2019-03-19T09:43:32.325Z,2.60
2019-03-19T09:46:01.575Z,2.87
2019-03-19T09:48:30.823Z,2.63
2019-03-19T09:51:00.139Z,2.93
2019-03-19T09:53:29.426Z,1.63
2019-03-19T09:55:58.673Z,2.23
2019-03-19T09:58:27.976Z,2.37
2019-03-19T10:00:57.265Z,1.90
2019-03-19T10:03:26.535Z,2.80
2019-03-19T10:05:55.971Z,1.93
2019-03-19T10:08:25.190Z,2.47
2019-03-19T10:10:54.467Z,1.67
2019-03-19T10:13:23.726Z,1.60
2019-03-19T10:15:52.930Z,1.67
2019-03-19T10:18:22.322Z,1.67
2019-03-19T10:20:51.607Z,1.57
2019-03-19T10:23:20.847Z,2.00
2019-03-19T10:25:50.090Z,1.50
2019-03-19T10:28:19.319Z,1.93
2019-03-19T10:30:48.659Z,1.27
2019-03-19T10:33:17.946Z,1.90
2019-03-19T10:35:47.341Z,1.70
2019-03-19T10:38:16.576Z,1.63
2019-03-19T10:40:45.806Z,2.00
2019-03-19T10:43:15.181Z,2.13
2019-03-19T10:45:44.447Z,1.73
2019-03-19T10:48:13.768Z,2.17
2019-03-19T10:50:43.037Z,1.90
2019-03-19T10:53:12.357Z,2.13
2019-03-19T10:55:43.400Z,2.73
2019-03-19T10:58:11.506Z,1.77
2019-03-19T11:00:40.180Z,1.60
2019-03-19T11:03:09.442Z,2.77
2019-03-19T11:05:38.754Z,2.30
2019-03-19T11:08:07.973Z,2.10
2019-03-19T11:10:37.271Z,1.83
2019-03-19T11:13:06.550Z,2.20
2019-03-19T11:15:35.874Z,1.93
2019-03-19T11:18:05.436Z,1.97
2019-03-19T11:20:34.769Z,2.00
2019-03-19T11:23:04.189Z,1.63
2019-03-19T11:25:33.538Z,2.20
2019-03-19T11:28:02.882Z,2.07
2019-03-19T11:30:32.096Z,1.77
2019-03-19T11:33:01.293Z,1.70
2019-03-19T11:35:30.594Z,1.57
2019-03-19T11:37:59.961Z,1.70
2019-03-19T11:40:29.228Z,1.20
2019-03-19T11:42:58.518Z,1.77
2019-03-19T11:45:27.832Z,1.80
2019-03-19T11:47:57.135Z,2.13
2019-03-19T11:50:26.431Z,1.87
2019-03-19T11:52:55.576Z,1.73
2019-03-19T11:55:24.875Z,2.10
2019-03-19T11:57:54.171Z,1.60
2019-03-19T12:00:28.914Z,1.70
2019-03-19T12:02:58.186Z,1.80
2019-03-19T12:05:27.374Z,1.97
2019-03-19T12:07:56.634Z,2.63
2019-03-19T12:10:25.859Z,1.60
2019-03-19T12:12:55.106Z,2.40
2019-03-19T12:15:24.294Z,1.77
2019-03-19T12:17:53.566Z,2.10
2019-03-19T12:20:22.776Z,2.20
2019-03-19T12:22:52.002Z,1.70
2019-03-19T12:25:21.230Z,1.70
2019-03-19T12:27:50.923Z,1.60
2019-03-19T12:30:22.596Z,1.50
2019-03-19T12:32:49.459Z,1.87
2019-03-19T12:35:18.826Z,1.83
2019-03-19T12:37:48.038Z,1.60
2019-03-19T12:40:17.251Z,1.93
2019-03-19T12:42:46.569Z,1.10
2019-03-19T12:45:15.815Z,1.90
2019-03-19T12:47:45.083Z,2.00
2019-03-19T12:50:15.644Z,2.03
2019-03-19T12:52:44.877Z,1.47
2019-03-19T12:55:14.122Z,1.93
2019-03-19T12:57:43.376Z,1.83
2019-03-19T13:00:17.107Z,1.73
2019-03-19T13:02:46.412Z,2.13
2019-03-19T13:05:15.682Z,1.73
2019-03-19T13:07:47.440Z,1.80
2019-03-19T13:10:16.289Z,1.80
2019-03-19T13:12:45.640Z,1.60
2019-03-19T13:15:15.280Z,1.87
2019-03-19T13:17:44.574Z,1.63
2019-03-19T13:20:14.026Z,1.57
2019-03-19T13:22:43.354Z,1.97
2019-03-19T13:25:14.381Z,1.40
2019-03-19T13:27:43.722Z,1.43
2019-03-19T13:30:17.462Z,1.40
2019-03-19T13:32:46.799Z,1.30
2019-03-19T13:35:16.169Z,1.50
2019-03-19T13:37:45.394Z,1.80
2019-03-19T13:40:15.687Z,1.60
2019-03-19T13:42:45.093Z,1.80
2019-03-19T13:45:14.766Z,1.57
2019-03-19T13:47:43.980Z,1.27
2019-03-19T13:50:13.266Z,1.53
2019-03-19T13:52:42.594Z,1.33
2019-03-19T13:55:12.614Z,1.13
2019-03-19T13:57:41.899Z,1.33
2019-03-19T14:00:12.233Z,1.80
2019-03-19T14:02:41.706Z,1.27
2019-03-19T14:05:11.046Z,1.30
2019-03-19T14:07:40.297Z,1.60
2019-03-19T14:10:09.970Z,1.23
2019-03-19T14:12:39.262Z,1.23
2019-03-19T14:15:10.603Z,1.30
2019-03-19T14:17:39.896Z,1.60
2019-03-19T14:20:10.628Z,1.50
2019-03-19T14:22:39.830Z,1.47
2019-03-19T14:25:09.364Z,1.67
2019-03-19T14:27:38.657Z,1.30
2019-03-19T14:30:10.402Z,1.80
2019-03-19T14:32:39.634Z,1.60
2019-03-19T14:35:09.022Z,1.60
2019-03-19T14:37:38.302Z,1.60
2019-03-19T14:40:08.984Z,1.50
2019-03-19T14:42:38.181Z,1.90
2019-03-19T14:45:07.658Z,1.40
2019-03-19T14:47:36.944Z,1.60
2019-03-19T14:50:06.564Z,1.50
2019-03-19T14:52:35.760Z,1.40
2019-03-19T14:55:05.472Z,1.63
2019-03-19T14:57:34.764Z,1.67
2019-03-19T15:00:04.908Z,1.83
2019-03-19T15:02:34.182Z,1.10
2019-03-19T15:05:03.458Z,1.57
2019-03-19T15:07:32.640Z,1.37
2019-03-19T15:10:01.905Z,1.97
2019-03-19T15:12:31.119Z,1.53
2019-03-19T15:15:00.342Z,1.30
2019-03-19T15:17:29.572Z,1.57
2019-03-19T15:19:58.920Z,1.20
2019-03-19T15:22:32.471Z,1.70
2019-03-19T15:24:57.568Z,1.70
2019-03-19T15:27:26.892Z,1.50
2019-03-19T15:29:56.313Z,1.93
2019-03-19T15:32:25.517Z,1.90
2019-03-19T15:34:54.712Z,1.83
2019-03-19T15:37:24.012Z,1.77
2019-03-19T15:39:53.320Z,1.50
2019-03-19T15:42:22.586Z,2.63
2019-03-19T15:44:51.805Z,1.83
2019-03-19T15:47:21.120Z,1.80
2019-03-19T15:49:50.331Z,2.03
2019-03-19T15:52:19.769Z,2.10
2019-03-19T15:54:48.887Z,1.53
2019-03-19T15:57:18.215Z,1.60
2019-03-19T15:59:47.479Z,1.70
2019-03-19T16:02:16.700Z,2.07
2019-03-19T16:04:45.963Z,1.43
2019-03-19T16:07:15.199Z,1.50
2019-03-19T16:09:44.637Z,1.90
2019-03-19T16:12:13.902Z,1.70
2019-03-19T16:14:43.122Z,1.37
2019-03-19T16:17:12.354Z,1.60
2019-03-19T16:19:41.595Z,1.90
2019-03-19T16:22:10.920Z,1.80
2019-03-19T16:24:41.775Z,1.60
2019-03-19T16:27:11.077Z,1.40
2019-03-19T16:29:40.593Z,1.57
2019-03-19T16:32:09.834Z,1.93
2019-03-19T16:34:39.639Z,3.77
2019-03-19T16:37:08.879Z,1.37
2019-03-19T16:39:38.191Z,1.67
2019-03-19T16:42:07.796Z,1.50
2019-03-19T16:44:37.177Z,1.63
2019-03-19T16:47:06.632Z,1.97
2019-03-19T16:49:36.557Z,1.40
2019-03-19T16:52:05.889Z,1.50
2019-03-19T16:54:35.154Z,1.83
2019-03-19T16:57:04.434Z,1.40
2019-03-19T16:59:33.671Z,1.53
2019-03-19T17:02:03.020Z,1.87
2019-03-19T17:04:32.339Z,1.50
2019-03-19T17:07:01.598Z,1.40
2019-03-19T17:09:34.250Z,1.57
2019-03-19T17:12:03.487Z,2.37
2019-03-19T17:14:32.883Z,1.90
2019-03-19T17:17:02.315Z,1.47
2019-03-19T17:19:31.915Z,1.47
2019-03-19T17:22:01.453Z,1.53
2019-03-19T17:24:30.800Z,1.27
2019-03-19T17:27:00.203Z,1.33
2019-03-19T17:29:29.491Z,1.53
2019-03-19T17:31:58.713Z,2.37
2019-03-19T17:34:28.063Z,1.83
2019-03-19T17:36:57.274Z,1.83
2019-03-19T17:39:26.502Z,1.30
2019-03-19T17:41:55.857Z,1.50
2019-03-19T17:44:25.084Z,1.80
2019-03-19T17:47:03.312Z,1.50
2019-03-19T17:49:32.667Z,1.80
2019-03-19T17:52:01.931Z,2.03
2019-03-19T17:54:31.426Z,2.13
2019-03-19T17:57:00.732Z,1.30
2019-03-19T17:59:30.050Z,1.57
2019-03-19T18:02:23.350Z,1.60
2019-03-19T18:04:40.985Z,1.63
2019-03-19T18:07:10.216Z,1.80
2019-03-19T18:09:39.571Z,2.30
2019-03-19T18:12:08.945Z,1.60
2019-03-19T18:14:38.228Z,1.73
2019-03-19T18:17:07.514Z,1.73
2019-03-19T18:19:36.733Z,2.00
2019-03-19T18:22:06.011Z,2.00
2019-03-19T18:24:35.459Z,1.83
2019-03-19T18:27:04.700Z,1.90
2019-03-19T18:29:34.162Z,2.30
2019-03-19T18:32:03.541Z,1.87
2019-03-19T18:34:32.807Z,2.00
2019-03-19T18:37:02.165Z,2.33
2019-03-19T18:39:31.642Z,2.40
2019-03-19T18:42:00.902Z,2.17
2019-03-19T18:44:30.181Z,2.50
2019-03-19T18:46:59.613Z,2.70
2019-03-19T18:49:29.396Z,3.00
2019-03-19T18:51:58.681Z,3.13
2019-03-19T18:54:27.970Z,4.03
2019-03-19T18:56:57.673Z,3.97
2019-03-19T18:59:26.968Z,4.13
2019-03-19T19:01:56.277Z,5.37
2019-03-19T19:04:25.588Z,16.33
2019-03-19T19:06:54.893Z,7.23
2019-03-19T19:09:24.418Z,3.80
2019-03-19T19:11:53.690Z,4.50
2019-03-19T19:14:23.110Z,3.83
2019-03-19T19:16:52.507Z,3.57
2019-03-19T19:19:22.059Z,3.30
2019-03-19T19:21:51.426Z,3.43
2019-03-19T19:24:20.949Z,3.60
2019-03-19T19:26:50.201Z,3.30
2019-03-19T19:29:19.627Z,3.13
2019-03-19T19:31:49.017Z,4.33
2019-03-19T19:34:18.562Z,6.80
2019-03-19T19:36:48.089Z,9.33
2019-03-19T19:39:17.334Z,5.40
2019-03-19T19:41:46.716Z,5.00
2019-03-19T19:44:15.910Z,4.63
2019-03-19T19:46:45.282Z,4.50
2019-03-19T19:49:14.759Z,4.43
2019-03-19T19:51:43.981Z,3.93
2019-03-19T19:54:13.390Z,4.43
2019-03-19T19:56:42.724Z,3.90
2019-03-19T19:59:12.122Z,4.03
2019-03-19T20:01:41.446Z,3.93
2019-03-19T20:04:10.976Z,4.10
2019-03-19T20:06:40.214Z,4.57
2019-03-19T20:09:09.755Z,5.83
2019-03-19T20:11:38.882Z,5.97
2019-03-19T20:14:08.230Z,5.27
2019-03-19T20:16:37.486Z,5.10
2019-03-19T20:19:06.743Z,3.90
2019-03-19T20:21:36.062Z,3.77
2019-03-19T20:24:05.336Z,3.60
2019-03-19T20:26:34.657Z,3.37
2019-03-19T20:29:03.942Z,3.13
2019-03-19T20:31:33.187Z,3.67
2019-03-19T20:34:02.471Z,3.27
2019-03-19T20:36:31.883Z,3.17
2019-03-19T20:39:01.119Z,2.73
2019-03-19T20:41:30.360Z,3.73
2019-03-19T20:43:59.558Z,2.90
2019-03-19T20:46:28.742Z,3.07
2019-03-19T20:48:58.020Z,3.33
2019-03-19T20:51:27.214Z,3.43
2019-03-19T20:53:56.478Z,3.07
2019-03-19T20:56:25.662Z,3.77
2019-03-19T20:58:54.978Z,2.57
2019-03-19T21:01:24.238Z,2.97
2019-03-19T21:03:53.458Z,2.57
2019-03-19T21:06:22.732Z,2.90
2019-03-19T21:08:52.088Z,3.13
2019-03-19T21:11:21.337Z,2.60
2019-03-19T21:13:50.675Z,3.33
2019-03-19T21:16:19.929Z,2.73
2019-03-19T21:18:49.129Z,2.80
2019-03-19T21:21:18.391Z,2.80
2019-03-19T21:23:47.588Z,2.93
2019-03-19T21:26:16.857Z,3.43
2019-03-19T21:28:46.168Z,3.30
2019-03-19T21:31:15.561Z,3.10
2019-03-19T21:33:51.150Z,2.50
2019-03-19T21:36:14.067Z,2.83
2019-03-19T21:38:43.452Z,2.80
2019-03-19T21:41:12.688Z,2.83
2019-03-19T21:43:41.883Z,2.50
2019-03-19T21:46:11.135Z,2.97
2019-03-19T21:48:40.448Z,2.97
2019-03-19T21:51:09.710Z,2.40
2019-03-19T21:53:38.919Z,2.30
2019-03-19T21:56:08.254Z,2.70
2019-03-19T21:58:37.554Z,2.73
2019-03-19T22:01:06.770Z,2.43
2019-03-19T22:03:35.988Z,2.70
2019-03-19T22:06:05.284Z,2.30
2019-03-19T22:08:34.436Z,2.80
2019-03-19T22:11:03.661Z,2.40
2019-03-19T22:13:32.944Z,3.03
2019-03-19T22:16:02.194Z,2.37
2019-03-19T22:18:31.478Z,2.17
2019-03-19T22:21:00.749Z,2.50
2019-03-19T22:23:29.956Z,2.87
2019-03-19T22:25:59.275Z,2.97
2019-03-19T22:28:28.482Z,2.53
2019-03-19T22:30:57.747Z,2.80
2019-03-19T22:33:27.005Z,2.60
2019-03-19T22:35:56.370Z,2.40
2019-03-19T22:38:25.645Z,2.70
2019-03-19T22:40:54.961Z,2.40
2019-03-19T22:43:25.980Z,3.03
2019-03-19T22:45:53.394Z,2.60
2019-03-19T22:48:22.598Z,2.60
2019-03-19T22:50:52.059Z,2.97
2019-03-19T22:53:21.344Z,2.83
2019-03-19T22:55:50.544Z,2.80
2019-03-19T22:58:19.871Z,2.77
2019-03-19T23:00:49.904Z,3.00
2019-03-19T23:03:19.132Z,2.93
2019-03-19T23:05:48.346Z,2.83
2019-03-19T23:08:17.592Z,2.53
2019-03-19T23:10:46.858Z,2.43
2019-03-19T23:13:16.090Z,2.67
2019-03-19T23:15:45.324Z,2.67
2019-03-19T23:18:14.570Z,2.77
2019-03-19T23:20:43.884Z,2.73
2019-03-19T23:23:13.113Z,3.40
2019-03-19T23:25:42.319Z,2.30
2019-03-19T23:28:11.507Z,2.80
2019-03-19T23:30:40.780Z,2.50
2019-03-19T23:33:09.974Z,2.83
2019-03-19T23:35:39.233Z,2.60
2019-03-19T23:38:08.486Z,2.53
2019-03-19T23:40:37.769Z,3.00
2019-03-19T23:43:07.014Z,3.43
2019-03-19T23:45:36.246Z,3.00
2019-03-19T23:48:05.479Z,2.77
2019-03-19T23:50:34.676Z,2.40
2019-03-19T23:53:03.955Z,2.70
2019-03-19T23:55:33.282Z,3.07
2019-03-19T23:58:02.564Z,2.50
